Time;durP1;ratioP1;P1;durP2;ratioP2;P2;SDS_P1;SDS_P2;PMS_P1;PMS_P2;Temp;Humidity;BMP_temperature;BMP_pressure;BME280_temperature;BME280_humidity;BME280_pressure;Samples;Min_cycle;Max_cycle;Signal;HPM_P1;HPM_P2
2021/04/23 00:01:44;;;;;;;5.63;2.17;;;;;;;10.70;27.13;95896.22;6873299;28;20240;-76
2021/04/23 00:05:05;;;;;;;5.23;2.37;;;;;;;10.69;27.07;95891.88;6871466;28;20255;-75
2021/04/23 00:08:26;;;;;;;3.73;2.30;;;;;;;10.65;26.98;95890.44;6890572;28;20235;-76
2021/04/23 00:11:51;;;;;;;2.87;1.97;;;;;;;10.57;27.35;95896.34;6884032;28;20220;-75
2021/04/23 00:15:14;;;;;;;3.63;2.20;;;;;;;10.53;27.28;95894.91;6890517;28;20307;-77
2021/04/23 00:18:35;;;;;;;8.47;2.50;;;;;;;10.55;27.78;95905.41;6879038;28;20308;-75
2021/04/23 00:21:57;;;;;;;6.93;2.13;;;;;;;10.47;27.99;95908.66;6877020;28;20221;-76
2021/04/23 00:25:26;;;;;;;6.20;2.57;;;;;;;10.41;28.35;95900.34;6897753;28;20220;-76
2021/04/23 00:28:49;;;;;;;3.13;2.03;;;;;;;10.33;28.37;95903.56;6890929;28;20584;-75
2021/04/23 00:35:50;;;;;;;4.60;2.60;;;;;;;10.27;28.57;95894.28;6881249;28;20228;-75
2021/04/23 00:39:13;;;;;;;9.23;4.40;;;;;;;10.25;29.01;95896.22;6890661;28;20217;-76
2021/04/23 00:42:33;;;;;;;5.70;3.03;;;;;;;10.21;28.53;95899.22;6885624;28;20225;-75
2021/04/23 00:45:55;;;;;;;3.63;2.27;;;;;;;10.19;28.55;95895.84;6891067;28;20223;-75
2021/04/23 00:49:15;;;;;;;4.23;2.60;;;;;;;10.15;28.82;95895.19;6891245;28;20260;-75
2021/04/23 00:52:38;;;;;;;3.17;2.27;;;;;;;10.14;29.87;95897.97;6909685;28;20217;-76
2021/04/23 00:56:01;;;;;;;6.50;2.70;;;;;;;10.10;29.64;95893.88;6892612;28;20305;-75
2021/04/23 00:59:22;;;;;;;3.90;2.10;;;;;;;10.09;29.47;95895.66;6871338;28;20228;-75
2021/04/23 01:02:43;;;;;;;6.47;2.60;;;;;;;10.08;29.39;95883.34;6873066;28;20315;-75
2021/04/23 01:06:15;;;;;;;3.77;2.10;;;;;;;10.04;29.51;95886.38;6879839;28;20216;-76
2021/04/23 01:09:36;;;;;;;7.10;2.30;;;;;;;9.98;30.05;95886.81;6872097;28;20589;-75
2021/04/23 01:12:57;;;;;;;5.63;2.60;;;;;;;9.94;30.07;95891.53;6892116;28;20718;-74
2021/04/23 01:16:22;;;;;;;8.93;2.47;;;;;;;9.95;30.12;95881.75;6897879;28;20213;-74
2021/04/23 01:19:43;;;;;;;6.53;2.53;;;;;;;9.90;29.65;95887.44;6872903;28;20570;-75
2021/04/23 01:23:03;;;;;;;4.30;2.40;;;;;;;9.85;29.72;95881.63;6883594;28;20709;-75
2021/04/23 01:26:27;;;;;;;4.70;2.30;;;;;;;9.77;30.76;95887.50;6893191;28;20303;-75
2021/04/23 01:29:48;;;;;;;6.30;2.60;;;;;;;9.71;30.73;95887.09;6881344;28;20221;-75
2021/04/23 01:33:08;;;;;;;7.03;2.90;;;;;;;9.66;31.00;95882.16;6904172;28;20234;-75
2021/04/23 01:36:32;;;;;;;4.77;2.33;;;;;;;9.65;30.87;95885.78;6881759;28;20231;-75
2021/04/23 01:39:55;;;;;;;5.77;2.40;;;;;;;9.56;31.06;95889.09;6879770;28;20239;-75
2021/04/23 01:43:17;;;;;;;5.00;2.50;;;;;;;9.48;31.40;95889.69;6879877;28;20998;-75
2021/04/23 01:46:39;;;;;;;3.50;2.57;;;;;;;9.38;31.42;95888.66;6899774;28;20605;-74
2021/04/23 01:49:59;;;;;;;5.27;2.40;;;;;;;9.30;31.38;95893.72;6896817;28;21054;-74
2021/04/23 01:53:20;;;;;;;3.80;2.60;;;;;;;9.27;31.52;95891.25;6895656;28;20227;-76
2021/04/23 01:56:41;;;;;;;3.60;2.30;;;;;;;9.20;31.96;95894.50;6883586;28;20224;-75
2021/04/23 02:00:10;;;;;;;4.10;2.30;;;;;;;9.17;32.49;95897.34;6877718;28;21050;-76
2021/04/23 02:03:32;;;;;;;4.33;2.30;;;;;;;9.19;32.25;95892.78;6895156;28;20598;-76
2021/04/23 02:06:52;;;;;;;3.40;2.60;;;;;;;9.19;32.17;95904.25;6879365;28;20647;-75
2021/04/23 02:10:21;;;;;;;4.63;2.80;;;;;;;9.18;31.71;95905.19;6895582;28;20237;-76
2021/04/23 02:13:42;;;;;;;4.37;2.20;;;;;;;9.18;32.47;95901.69;6891707;28;20542;-76
2021/04/23 02:17:06;;;;;;;5.40;2.77;;;;;;;9.14;32.44;95906.38;6878878;28;20229;-76
2021/04/23 02:20:32;;;;;;;5.07;2.97;;;;;;;9.09;32.09;95912.97;6883395;28;20218;-76
2021/04/23 02:23:53;;;;;;;5.30;2.63;;;;;;;8.99;32.61;95908.34;6884557;28;20224;-75
2021/04/23 02:27:13;;;;;;;3.67;2.57;;;;;;;8.89;32.54;95909.97;6903637;28;20325;-75
2021/04/23 02:30:40;;;;;;;4.60;2.30;;;;;;;8.87;32.74;95908.34;6887913;28;20235;-77
2021/04/23 02:34:03;;;;;;;6.57;3.03;;;;;;;8.82;33.03;95907.84;6893020;28;20229;-76
2021/04/23 02:37:24;;;;;;;3.70;2.43;;;;;;;8.82;32.72;95910.50;6895952;28;20226;-75
2021/04/23 02:40:46;;;;;;;4.50;2.60;;;;;;;8.81;32.88;95907.00;6894977;28;20232;-75
2021/04/23 02:44:07;;;;;;;3.67;2.50;;;;;;;8.83;32.92;95918.34;6880410;28;20215;-76
2021/04/23 02:47:27;;;;;;;5.80;3.43;;;;;;;8.82;33.31;95916.63;6886773;28;20744;-75
2021/04/23 02:50:51;;;;;;;3.43;2.60;;;;;;;8.75;33.19;95920.66;6899105;28;20239;-76
2021/04/23 02:54:13;;;;;;;6.57;3.17;;;;;;;8.72;33.73;95923.53;6871217;28;20241;-76
2021/04/23 02:57:33;;;;;;;6.57;3.17;;;;;;;8.65;33.83;95932.84;6888912;28;20619;-76
2021/04/23 03:01:00;;;;;;;8.33;2.90;;;;;;;8.61;34.09;95934.88;6882090;28;20703;-76
2021/04/23 03:04:21;;;;;;;6.90;2.63;;;;;;;8.60;34.03;95933.19;6872264;28;20278;-76
2021/04/23 03:07:41;;;;;;;6.27;3.37;;;;;;;8.53;34.10;95929.28;6882116;28;20213;-76
2021/04/23 03:11:08;;;;;;;7.00;2.63;;;;;;;8.49;33.95;95935.75;6885617;28;20224;-75
2021/04/23 03:14:28;;;;;;;6.13;2.83;;;;;;;8.46;34.13;95929.81;6873911;28;20221;-76
2021/04/23 03:17:54;;;;;;;6.87;2.90;;;;;;;8.41;34.12;95934.56;6883586;28;20302;-76
2021/04/23 03:21:15;;;;;;;5.77;3.03;;;;;;;8.35;34.24;95935.84;6890750;28;20233;-75
2021/04/23 03:24:36;;;;;;;6.13;2.97;;;;;;;8.34;34.14;95946.56;6888123;28;20217;-76
2021/04/23 03:27:57;;;;;;;6.13;2.90;;;;;;;8.32;34.23;95949.31;6885322;28;20217;-75
2021/04/23 03:31:19;;;;;;;9.20;3.43;;;;;;;8.36;34.43;95945.47;6873538;28;20272;-76
2021/04/23 03:34:39;;;;;;;7.13;3.10;;;;;;;8.35;34.56;95938.50;6884501;28;20277;-75
2021/04/23 03:38:04;;;;;;;4.80;2.90;;;;;;;8.29;34.40;95932.75;6899377;28;20216;-76
2021/04/23 03:41:29;;;;;;;4.77;2.57;;;;;;;8.20;34.94;95942.16;6890501;28;20216;-75
2021/04/23 03:44:54;;;;;;;6.07;2.87;;;;;;;8.12;34.87;95942.69;6893461;28;20275;-75
2021/04/23 03:48:15;;;;;;;9.00;3.40;;;;;;;8.04;35.16;95947.69;6876836;28;20274;-75
2021/04/23 03:51:35;;;;;;;4.67;2.93;;;;;;;7.96;35.44;95939.41;6886447;28;20240;-75
2021/04/23 03:54:56;;;;;;;8.80;3.93;;;;;;;7.94;35.55;95937.81;6870444;28;20220;-75
2021/04/23 03:58:18;;;;;;;7.27;2.93;;;;;;;7.95;35.86;95942.13;6900346;28;20220;-75
2021/04/23 04:01:38;;;;;;;6.27;2.90;;;;;;;7.94;35.70;95943.09;6894056;28;20582;-75
2021/04/23 04:04:59;;;;;;;9.20;3.47;;;;;;;7.92;35.80;95943.19;6903473;28;21036;-75
2021/04/23 04:08:20;;;;;;;6.57;2.97;;;;;;;7.87;35.75;95937.38;6887234;28;20223;-75
2021/04/23 04:11:40;;;;;;;8.23;3.90;;;;;;;7.81;36.40;95947.50;6895147;28;20286;-76
2021/04/23 04:15:01;;;;;;;9.13;3.80;;;;;;;7.82;36.72;95950.06;6880768;28;20323;-75
2021/04/23 04:18:22;;;;;;;8.07;3.43;;;;;;;7.80;36.63;95953.75;6865760;28;20231;-76
2021/04/23 04:21:43;;;;;;;6.70;3.47;;;;;;;7.75;36.64;95961.97;6885639;28;20760;-76
2021/04/23 04:25:05;;;;;;;7.17;3.37;;;;;;;7.70;37.04;95958.78;6886752;28;20609;-76
2021/04/23 04:28:27;;;;;;;7.13;3.70;;;;;;;7.69;36.70;95965.06;6885363;28;20216;-77
2021/04/23 04:31:48;;;;;;;8.50;3.50;;;;;;;7.72;36.71;95962.19;6873640;28;20229;-75
2021/04/23 04:35:09;;;;;;;7.17;3.53;;;;;;;7.71;36.94;95969.28;6874024;28;20412;-75
2021/04/23 04:38:29;;;;;;;6.40;3.57;;;;;;;7.73;37.13;95969.19;6879435;28;20757;-75
2021/04/23 04:41:50;;;;;;;9.37;3.30;;;;;;;7.68;37.51;95974.78;6876922;28;20224;-74
2021/04/23 04:45:16;;;;;;;7.83;3.70;;;;;;;7.55;37.76;95976.50;6892885;28;20255;-75
2021/04/23 04:48:37;;;;;;;10.93;4.33;;;;;;;7.53;38.55;95985.50;6888433;28;20217;-74
2021/04/23 04:51:57;;;;;;;7.73;4.00;;;;;;;7.53;38.24;95991.63;6872786;28;20225;-73
2021/04/23 04:55:19;;;;;;;10.90;4.47;;;;;;;7.60;38.74;95992.06;6876140;28;20304;-74
2021/04/23 04:58:41;;;;;;;8.13;4.40;;;;;;;7.58;38.33;95991.34;6876600;28;20224;-74
2021/04/23 05:02:02;;;;;;;10.00;4.43;;;;;;;7.57;38.59;96000.22;6881798;28;20353;-74
2021/04/23 05:05:23;;;;;;;6.87;3.53;;;;;;;7.69;38.28;95994.13;6866285;28;20217;-74
2021/04/23 05:08:43;;;;;;;7.53;4.17;;;;;;;7.83;38.41;95995.84;6864561;28;20777;-74
2021/04/23 05:12:04;;;;;;;8.13;4.23;;;;;;;8.04;38.54;96003.22;6885925;28;20225;-74
2021/04/23 05:15:28;;;;;;;10.17;3.73;;;;;;;8.13;38.13;96005.25;6874505;28;20221;-77
2021/04/23 05:18:48;;;;;;;9.47;3.90;;;;;;;8.32;38.19;96007.53;6867514;28;20244;-74
2021/04/23 05:22:09;;;;;;;6.17;3.90;;;;;;;8.44;37.85;96013.78;6848941;28;20280;-75
2021/04/23 05:25:30;;;;;;;9.87;4.30;;;;;;;8.60;37.89;96017.09;6864388;28;20245;-74
2021/04/23 05:28:50;;;;;;;7.37;4.63;;;;;;;8.71;37.28;96024.25;6883980;28;20348;-75
2021/04/23 05:32:13;;;;;;;4.40;3.43;;;;;;;8.73;37.80;96030.31;6859138;28;20227;-76
2021/04/23 05:35:34;;;;;;;6.53;2.80;;;;;;;8.84;37.31;96033.06;6879315;28;20286;-74
2021/04/23 05:38:57;;;;;;;5.93;3.40;;;;;;;8.85;37.64;96037.41;6855431;28;20225;-75
2021/04/23 05:42:17;;;;;;;8.53;3.20;;;;;;;8.95;37.36;96028.69;6852843;28;20263;-74
2021/04/23 05:45:42;;;;;;;6.17;3.13;;;;;;;9.13;37.53;96033.66;6891359;28;20219;-77
2021/04/23 05:49:05;;;;;;;6.23;3.00;;;;;;;9.29;37.70;96035.13;6898390;28;20304;-74
2021/04/23 05:52:28;;;;;;;3.47;2.70;;;;;;;9.43;37.57;96032.34;6872574;28;20232;-73
2021/04/23 05:55:48;;;;;;;8.57;3.03;;;;;;;9.63;36.93;96038.00;6857672;28;20250;-72
2021/04/23 05:59:08;;;;;;;7.17;2.77;;;;;;;9.81;36.59;96037.50;6875615;28;20221;-73
2021/04/23 06:02:29;;;;;;;6.50;3.13;;;;;;;10.04;36.80;96035.81;6884931;28;20235;-72
2021/04/23 06:05:52;;;;;;;6.33;3.17;;;;;;;10.30;36.76;96033.91;6893528;28;20225;-72
2021/04/23 06:09:15;;;;;;;9.20;3.30;;;;;;;10.56;36.64;96030.09;6873198;28;20694;-73
2021/04/23 06:12:38;;;;;;;7.23;3.67;;;;;;;10.83;35.22;96035.09;6848606;28;20651;-74
2021/04/23 06:15:59;;;;;;;9.83;3.60;;;;;;;11.07;34.95;96035.00;6892554;28;20599;-73
2021/04/23 06:19:20;;;;;;;5.67;3.37;;;;;;;11.32;34.47;96032.09;6888982;28;20704;-73
2021/04/23 06:22:41;;;;;;;5.37;3.10;;;;;;;11.55;34.86;96030.28;6877114;28;20241;-73
2021/04/23 06:26:01;;;;;;;4.70;3.20;;;;;;;11.79;35.05;96041.63;6868335;28;20221;-72
2021/04/23 06:29:22;;;;;;;9.90;3.43;;;;;;;12.07;34.92;96026.06;6887114;28;20731;-72
2021/04/23 06:32:44;;;;;;;4.90;3.73;;;;;;;12.34;34.82;96021.09;6871389;28;20279;-74
2021/04/23 06:36:08;;;;;;;6.10;2.97;;;;;;;12.61;34.88;96024.13;6876712;28;20247;-72
2021/04/23 06:39:29;;;;;;;6.93;3.80;;;;;;;12.93;34.77;96029.34;6875959;28;20236;-74
2021/04/23 06:42:50;;;;;;;6.33;3.37;;;;;;;13.26;32.66;96022.97;6893330;28;20252;-73
2021/04/23 06:46:13;;;;;;;7.43;3.60;;;;;;;13.50;31.34;96031.50;6894064;28;20216;-74
2021/04/23 06:49:34;;;;;;;6.63;3.50;;;;;;;13.59;31.02;96027.16;6875825;28;20216;-75
2021/04/23 06:52:54;;;;;;;7.63;3.87;;;;;;;13.66;30.65;96025.66;6872945;28;20319;-73
2021/04/23 06:56:17;;;;;;;6.07;3.23;;;;;;;13.79;29.72;96022.72;6864359;28;20367;-73
2021/04/23 06:59:38;;;;;;;6.03;3.80;;;;;;;13.89;29.81;96024.44;6886563;28;20693;-73
2021/04/23 07:03:00;;;;;;;8.53;3.97;;;;;;;14.08;29.22;96029.81;6871160;28;20227;-73
2021/04/23 07:06:21;;;;;;;7.50;3.53;;;;;;;14.23;29.10;96026.75;6868506;28;20255;-73
2021/04/23 07:09:44;;;;;;;9.13;3.50;;;;;;;14.29;29.30;96023.50;6881391;28;20213;-73
2021/04/23 07:13:04;;;;;;;8.50;4.03;;;;;;;14.43;29.25;96032.00;6883158;28;20476;-74
2021/04/23 07:16:24;;;;;;;5.67;3.77;;;;;;;14.69;28.80;96023.38;6884922;28;20212;-74
2021/04/23 07:19:47;;;;;;;9.17;4.13;;;;;;;15.04;28.97;96029.78;6880144;28;20208;-75
2021/04/23 07:23:08;;;;;;;7.00;3.80;;;;;;;15.24;28.72;96033.25;6864370;28;20240;-73
2021/04/23 07:26:28;;;;;;;8.43;3.53;;;;;;;15.54;28.53;96032.22;6873618;28;20259;-74
2021/04/23 07:29:49;;;;;;;7.73;4.43;;;;;;;15.87;27.33;96030.75;6898042;28;21629;-74
2021/04/23 07:33:12;;;;;;;7.30;3.90;;;;;;;16.12;26.54;96039.91;6858731;28;20265;-73
2021/04/23 07:36:33;;;;;;;8.67;4.50;;;;;;;16.33;26.69;96028.91;6874862;28;20224;-74
2021/04/23 07:39:53;;;;;;;8.43;4.97;;;;;;;16.60;26.75;96034.22;6879904;28;20216;-74
2021/04/23 07:43:16;;;;;;;7.00;3.97;;;;;;;16.83;25.94;96032.75;6883850;28;20221;-74
2021/04/23 07:46:36;;;;;;;7.30;3.73;;;;;;;17.06;25.73;96033.09;6887684;28;20239;-74
2021/04/23 07:49:57;;;;;;;8.90;4.10;;;;;;;17.38;25.54;96036.00;6885623;28;20590;-73
2021/04/23 07:53:17;;;;;;;8.57;4.47;;;;;;;17.67;25.08;96030.31;6889549;28;20221;-74
2021/04/23 07:56:40;;;;;;;12.87;4.03;;;;;;;17.92;25.37;96032.09;6898838;28;20702;-74
2021/04/23 08:00:03;;;;;;;7.07;3.90;;;;;;;18.21;24.55;96020.06;6875013;28;20637;-74
2021/04/23 08:03:23;;;;;;;8.67;4.30;;;;;;;18.40;24.04;96026.03;6882399;28;20220;-73
2021/04/23 08:06:44;;;;;;;8.93;4.30;;;;;;;18.57;24.29;96024.22;6867586;28;20227;-74
2021/04/23 08:10:05;;;;;;;8.27;4.37;;;;;;;18.81;23.59;96016.16;6875179;28;20275;-75
2021/04/23 08:13:26;;;;;;;8.33;4.30;;;;;;;18.98;23.43;96025.06;6876460;28;20301;-75
2021/04/23 08:16:48;;;;;;;6.70;3.87;;;;;;;19.08;22.84;96019.50;6885858;28;20208;-75
2021/04/23 08:20:09;;;;;;;9.33;4.60;;;;;;;19.14;23.03;96035.00;6876153;28;20636;-72
2021/04/23 08:23:35;;;;;;;9.83;4.07;;;;;;;19.23;23.01;96029.44;6901992;28;20232;-73
2021/04/23 08:26:57;;;;;;;7.00;4.27;;;;;;;19.40;22.23;96035.63;6890312;28;20220;-73
2021/04/23 08:30:20;;;;;;;8.57;4.60;;;;;;;19.63;22.45;96030.38;6895929;28;20213;-72
2021/04/23 08:33:41;;;;;;;7.87;4.30;;;;;;;19.90;22.58;96021.88;6877174;28;20715;-73
2021/04/23 08:37:01;;;;;;;7.67;4.47;;;;;;;20.13;22.08;96025.47;6874514;28;20220;-75
2021/04/23 08:40:22;;;;;;;12.93;4.63;;;;;;;20.39;21.37;96014.41;6885873;28;20217;-74
2021/04/23 08:43:45;;;;;;;11.03;4.40;;;;;;;20.83;21.54;96016.44;6894941;28;20221;-75
2021/04/23 08:47:07;;;;;;;9.57;4.70;;;;;;;21.30;21.46;96019.78;6888874;28;20295;-73
2021/04/23 08:50:28;;;;;;;8.33;4.67;;;;;;;21.87;20.90;96015.63;6876564;28;20224;-74
2021/04/23 08:53:51;;;;;;;9.27;4.23;;;;;;;22.55;20.63;96020.66;6870043;28;20221;-73
2021/04/23 08:57:12;;;;;;;8.60;4.25;;;;;;;23.40;20.55;96028.78;6879484;28;20299;-73
2021/04/23 09:00:32;;;;;;;8.68;4.50;;;;;;;24.26;19.46;96016.66;6881215;28;20228;-73
2021/04/23 09:03:56;;;;;;;11.77;5.30;;;;;;;25.20;19.50;96004.78;6877290;28;20877;-74
2021/04/23 09:07:16;;;;;;;10.73;5.28;;;;;;;25.92;17.51;96012.09;6898802;28;20295;-73
2021/04/23 09:10:39;;;;;;;9.93;5.45;;;;;;;26.68;17.20;96005.97;6892969;28;20275;-74
2021/04/23 09:14:03;;;;;;;8.88;5.15;;;;;;;27.58;16.99;95997.41;6881155;28;20303;-73
2021/04/23 09:17:25;;;;;;;11.55;5.55;;;;;;;28.48;16.11;95994.97;6894249;28;20763;-74
2021/04/23 09:20:47;;;;;;;9.20;5.35;;;;;;;28.86;14.95;96005.66;6879720;28;20597;-74
2021/04/23 09:24:08;;;;;;;11.38;5.88;;;;;;;29.31;14.65;95995.94;6870427;28;20295;-74
2021/04/23 09:27:34;;;;;;;8.73;5.28;;;;;;;29.85;14.45;95993.97;6884254;28;20235;-74
2021/04/23 09:30:54;;;;;;;10.90;5.85;;;;;;;30.15;14.24;95994.69;6863224;28;20270;-74
2021/04/23 09:34:15;;;;;;;7.32;4.72;;;;;;;30.40;13.90;95979.84;6849357;28;20596;-74
2021/04/23 09:37:46;;;;;;;9.23;5.57;;;;;;;30.93;13.92;95987.81;6893654;28;20236;-74
2021/04/23 09:41:20;;;;;;;7.93;5.35;;;;;;;31.40;13.23;95996.63;6873658;28;20231;-74
2021/04/23 09:44:50;;;;;;;9.38;5.40;;;;;;;31.76;12.86;95992.59;6898212;28;20877;-73
2021/04/23 09:48:20;;;;;;;8.90;5.53;;;;;;;31.77;12.70;95995.09;6895037;28;20239;-74
2021/04/23 09:51:41;;;;;;;10.35;5.63;;;;;;;32.06;12.65;95994.97;6891888;28;20221;-74
2021/04/23 09:55:04;;;;;;;8.32;5.18;;;;;;;32.59;12.44;95988.88;6899410;28;20217;-74
2021/04/23 09:58:24;;;;;;;6.72;5.25;;;;;;;33.08;12.17;95992.47;6902474;28;20216;-74
2021/04/23 10:01:57;;;;;;;9.68;5.05;;;;;;;33.33;11.97;95979.00;6904367;28;20209;-75
2021/04/23 10:05:34;;;;;;;8.05;5.50;;;;;;;33.47;11.36;95977.47;6897384;28;20512;-74
2021/04/23 10:09:06;;;;;;;11.88;5.25;;;;;;;33.10;11.61;95977.34;6872132;28;20380;-74
2021/04/23 10:12:52;;;;;;;8.85;5.70;;;;;;;33.13;10.82;95981.53;6856602;28;20623;-74
2021/04/23 10:16:15;;;;;;;11.57;6.53;;;;;;;33.21;11.17;95978.31;6880230;28;20263;-75
2021/04/23 10:19:38;;;;;;;14.35;6.47;;;;;;;33.35;11.51;95979.56;6861132;28;20237;-74
2021/04/23 10:23:00;;;;;;;10.25;6.50;;;;;;;33.44;11.60;95972.50;6862485;28;20300;-74
2021/04/23 10:26:23;;;;;;;8.85;6.22;;;;;;;33.27;11.07;95976.44;6847023;28;20218;-76
2021/04/23 10:29:46;;;;;;;10.30;6.88;;;;;;;33.83;12.30;95981.38;6865762;28;20588;-75
2021/04/23 10:33:14;;;;;;;12.90;6.03;;;;;;;34.61;12.33;95976.03;6869535;28;20222;-74
2021/04/23 10:36:40;;;;;;;15.13;6.35;;;;;;;34.71;11.44;95978.88;6877104;28;20209;-75
2021/04/23 10:40:04;;;;;;;11.20;5.78;;;;;;;34.97;11.22;95977.03;6857300;28;21089;-74
2021/04/23 10:43:24;;;;;;;8.30;5.85;;;;;;;34.31;11.22;95983.06;6859514;28;20566;-74
2021/04/23 10:46:52;;;;;;;11.10;6.15;;;;;;;34.17;11.20;95984.63;6859710;28;20718;-74
2021/04/23 10:50:18;;;;;;;11.73;6.50;;;;;;;34.39;11.35;95984.50;6863202;28;20341;-75
2021/04/23 10:53:46;;;;;;;13.30;6.75;;;;;;;33.27;12.17;95980.03;6859813;28;20313;-74
2021/04/23 10:57:06;;;;;;;13.05;6.43;;;;;;;32.56;12.34;95978.38;6856886;28;20243;-74
2021/04/23 11:00:31;;;;;;;11.23;6.38;;;;;;;31.47;12.73;95978.94;6865292;28;20283;-74
2021/04/23 11:04:02;;;;;;;16.10;5.70;;;;;;;30.05;13.13;95986.25;6871917;28;20231;-75
2021/04/23 11:07:23;;;;;;;10.18;5.78;;;;;;;29.20;13.46;95993.16;6890881;28;20283;-74
2021/04/23 11:14:29;;;;;;;10.95;5.72;;;;;;;26.83;15.70;95982.81;6883024;28;20240;-73
2021/04/23 11:17:52;;;;;;;8.15;5.60;;;;;;;26.00;17.10;95978.38;6893042;28;20223;-73
2021/04/23 11:21:31;;;;;;;8.38;5.50;;;;;;;25.25;17.37;95976.97;6861334;28;20229;-75
2021/04/23 11:25:02;;;;;;;12.25;6.45;;;;;;;24.73;17.93;95983.19;6901259;28;20227;-74
2021/04/23 11:28:23;;;;;;;8.63;6.18;;;;;;;24.12;18.44;95969.59;6881450;28;20219;-75
2021/04/23 11:32:20;;;;;;;11.45;6.53;;;;;;;23.80;18.92;95976.53;6885458;28;20209;-74
2021/04/23 11:35:40;;;;;;;12.17;5.33;;;;;;;23.38;19.00;95972.09;6881304;28;20220;-74
2021/04/23 11:39:08;;;;;;;9.37;6.10;;;;;;;23.04;18.68;95975.56;6858505;28;20217;-72
2021/04/23 11:42:39;;;;;;;9.13;5.30;;;;;;;22.35;19.15;95973.59;6893452;28;20244;-73
2021/04/23 11:46:00;;;;;;;8.83;5.13;;;;;;;22.21;19.83;95965.34;6914539;28;20631;-74
2021/04/23 11:49:20;;;;;;;8.10;5.00;;;;;;;22.18;20.38;95963.00;6869055;28;20856;-72
2021/04/23 11:52:43;;;;;;;12.47;5.27;;;;;;;22.14;20.22;95963.56;6876542;28;20229;-72
2021/04/23 11:56:04;;;;;;;6.20;4.43;;;;;;;22.14;20.58;95963.56;6870382;28;20729;-73
2021/04/23 11:59:24;;;;;;;7.53;5.10;;;;;;;22.03;20.13;95961.38;6869055;28;20236;-73
2021/04/23 12:02:50;;;;;;;6.97;4.90;;;;;;;21.64;19.50;95961.66;6904066;28;20228;-71
2021/04/23 12:06:11;;;;;;;7.90;4.57;;;;;;;21.35;19.99;95960.63;6886764;28;20283;-71
2021/04/23 12:09:31;;;;;;;9.13;4.60;;;;;;;21.49;20.57;95955.41;6871826;28;20221;-71
2021/04/23 12:12:52;;;;;;;7.50;4.77;;;;;;;21.54;20.87;95951.13;6889584;28;20237;-71
2021/04/23 12:16:14;;;;;;;7.43;5.10;;;;;;;21.51;20.24;95951.50;6882734;28;20218;-71
2021/04/23 12:19:36;;;;;;;9.03;5.03;;;;;;;21.48;20.95;95942.94;6880093;28;20295;-70
2021/04/23 12:22:58;;;;;;;8.27;5.07;;;;;;;21.33;20.59;95954.56;6874900;28;20233;-73
2021/04/23 12:26:19;;;;;;;7.80;4.77;;;;;;;21.31;20.62;95950.38;6878262;28;20300;-73
2021/04/23 12:29:42;;;;;;;9.70;4.90;;;;;;;21.24;21.62;95950.28;6862713;28;20224;-71
2021/04/23 12:33:02;;;;;;;9.03;4.23;;;;;;;21.15;21.28;95943.28;6877306;28;20263;-70
2021/04/23 12:36:43;;;;;;;7.67;4.53;;;;;;;21.11;21.23;95939.25;6886338;28;20574;-71
2021/04/23 12:40:06;;;;;;;7.73;4.90;;;;;;;20.94;21.14;95945.81;6884352;28;20232;-72
2021/04/23 12:43:29;;;;;;;9.80;5.20;;;;;;;20.72;21.57;95939.47;6895571;28;20224;-73
2021/04/23 12:46:55;;;;;;;11.47;4.70;;;;;;;20.70;21.61;95944.19;6871093;28;20219;-73
2021/04/23 12:50:15;;;;;;;7.33;4.87;;;;;;;20.66;21.49;95942.88;6874713;28;20312;-73
2021/04/23 12:53:36;;;;;;;6.97;4.57;;;;;;;20.63;21.86;95940.53;6864573;28;20227;-71
2021/04/23 12:57:00;;;;;;;9.30;4.33;;;;;;;20.71;22.42;95934.22;6869274;28;20228;-71
2021/04/23 13:00:20;;;;;;;8.97;4.43;;;;;;;20.69;21.47;95942.50;6889763;28;20224;-72
2021/04/23 13:03:43;;;;;;;8.70;4.60;;;;;;;20.68;22.45;95940.81;6863540;28;20221;-71
2021/04/23 13:07:15;;;;;;;9.33;4.93;;;;;;;20.60;21.06;95938.19;6866549;28;21051;-72
2021/04/23 13:10:41;;;;;;;8.47;4.67;;;;;;;20.41;21.46;95934.13;6884404;28;20240;-72
2021/04/23 13:14:16;;;;;;;9.40;5.07;;;;;;;20.35;22.63;95926.75;6866227;28;20772;-73
2021/04/23 13:17:39;;;;;;;7.97;5.43;;;;;;;20.29;22.09;95929.28;6869012;28;20258;-71
2021/04/23 13:21:07;;;;;;;12.33;4.87;;;;;;;20.30;21.80;95925.59;6865090;28;20232;-71
2021/04/23 13:24:28;;;;;;;9.83;4.80;;;;;;;20.09;21.02;95923.53;6877864;28;20298;-70
2021/04/23 13:27:54;;;;;;;7.40;4.90;;;;;;;20.09;22.32;95912.75;6893412;28;20208;-70
2021/04/23 13:31:18;;;;;;;10.83;5.00;;;;;;;20.05;21.82;95908.72;6890491;28;20243;-72
2021/04/23 13:34:53;;;;;;;10.37;5.30;;;;;;;19.95;22.41;95911.66;6887918;28;20230;-71
2021/04/23 13:38:32;;;;;;;9.80;5.40;;;;;;;20.01;22.79;95915.50;6879457;28;20223;-73
2021/04/23 13:41:55;;;;;;;11.33;4.90;;;;;;;19.94;22.03;95896.50;6899585;28;20239;-72
2021/04/23 13:45:18;;;;;;;10.83;4.80;;;;;;;19.86;22.47;95899.25;6881309;28;20231;-71
2021/04/23 13:52:17;;;;;;;10.87;4.77;;;;;;;19.96;22.31;95890.94;6831475;28;20232;-73
2021/04/23 13:55:38;;;;;;;8.07;4.97;;;;;;;19.88;22.49;95896.34;6817208;28;20233;-73
2021/04/23 13:59:03;;;;;;;10.23;5.10;;;;;;;19.79;23.37;95895.56;6829156;28;20221;-75
2021/04/23 14:02:24;;;;;;;8.50;5.10;;;;;;;19.81;23.23;95887.31;6831400;28;20316;-73
2021/04/23 14:05:45;;;;;;;12.10;5.77;;;;;;;19.90;23.86;95894.34;6833448;28;20209;-73
2021/04/23 14:09:10;;;;;;;8.33;5.00;;;;;;;19.97;23.28;95889.91;6837748;28;20248;-74
2021/04/23 14:12:31;;;;;;;8.03;5.00;;;;;;;19.84;23.69;95874.31;6839488;28;20234;-73
2021/04/23 14:15:53;;;;;;;7.90;5.07;;;;;;;19.82;23.58;95873.66;6868404;23;24706;-73
2021/04/23 14:19:15;;;;;;;8.13;4.67;;;;;;;19.84;24.15;95879.72;6845708;28;20217;-72
2021/04/23 14:22:35;;;;;;;8.07;4.80;;;;;;;19.84;23.96;95868.09;6847062;28;20217;-73
2021/04/23 14:25:56;;;;;;;12.90;6.00;;;;;;;19.86;24.07;95869.59;6872396;28;20599;-74
2021/04/23 14:29:20;;;;;;;7.67;5.27;;;;;;;19.88;23.29;95858.63;6846994;28;20280;-72
2021/04/23 14:32:41;;;;;;;7.77;5.40;;;;;;;19.76;22.86;95868.16;6826110;28;20226;-73
2021/04/23 14:36:03;;;;;;;11.10;5.43;;;;;;;19.55;23.54;95855.31;6821841;28;20249;-73
2021/04/23 14:39:24;;;;;;;9.67;5.07;;;;;;;19.62;24.22;95864.34;6820484;28;20222;-73
2021/04/23 14:42:44;;;;;;;15.60;5.17;;;;;;;19.62;23.26;95858.94;6813256;28;20304;-70
2021/04/23 14:46:08;;;;;;;6.60;4.93;;;;;;;19.51;23.74;95856.69;6831813;28;20253;-70
2021/04/23 14:49:28;;;;;;;11.07;5.40;;;;;;;19.59;24.43;95856.63;6824849;28;20681;-70
2021/04/23 14:52:48;;;;;;;10.10;5.80;;;;;;;19.64;24.12;95855.06;6816256;28;20229;-70
2021/04/23 14:56:09;;;;;;;7.87;5.23;;;;;;;19.55;23.10;95847.22;6825541;28;20335;-71
2021/04/23 14:59:29;;;;;;;9.10;5.13;;;;;;;19.47;23.67;95855.31;6797780;28;20241;-70
2021/04/23 15:02:53;;;;;;;9.70;5.67;;;;;;;19.36;24.12;95853.00;6819192;28;20281;-70
2021/04/23 15:06:13;;;;;;;10.70;5.70;;;;;;;19.24;24.52;95856.09;6831563;28;20737;-70
2021/04/23 15:09:34;;;;;;;8.27;5.30;;;;;;;19.23;25.18;95848.16;6818074;28;20333;-71
2021/04/23 15:12:57;;;;;;;10.43;5.90;;;;;;;19.32;24.91;95852.50;6798435;28;20234;-70
2021/04/23 15:16:19;;;;;;;15.80;6.07;;;;;;;19.35;24.40;95840.56;6816513;28;20233;-70
2021/04/23 15:19:39;;;;;;;8.47;5.63;;;;;;;19.39;24.41;95849.94;6833329;28;20478;-68
2021/04/23 15:23:00;;;;;;;9.20;6.10;;;;;;;19.33;24.41;95840.72;6837322;28;20232;-71
2021/04/23 15:26:21;;;;;;;9.07;5.77;;;;;;;19.30;23.81;95851.84;6814385;28;20226;-69
2021/04/23 15:29:41;;;;;;;10.73;5.40;;;;;;;19.18;23.90;95832.53;6818763;28;20698;-71
2021/04/23 15:33:06;;;;;;;8.37;5.33;;;;;;;19.17;24.53;95833.53;6832352;28;20232;-70
2021/04/23 15:36:29;;;;;;;9.13;5.60;;;;;;;19.19;24.48;95828.84;6816909;28;20236;-71
2021/04/23 15:39:52;;;;;;;8.87;5.83;;;;;;;19.10;23.90;95829.06;6805008;28;20352;-74
2021/04/23 15:43:15;;;;;;;10.63;6.30;;;;;;;19.10;24.39;95832.59;6808874;28;20219;-69
2021/04/23 15:46:36;;;;;;;12.50;6.57;;;;;;;19.16;24.71;95837.25;6790061;28;20221;-69
2021/04/23 15:49:58;;;;;;;9.33;6.20;;;;;;;19.21;25.33;95826.78;6803249;28;20229;-71
2021/04/23 15:53:19;;;;;;;9.10;5.70;;;;;;;19.12;25.03;95821.63;6799473;28;20636;-69
2021/04/23 15:56:39;;;;;;;13.17;6.17;;;;;;;19.10;25.35;95823.66;6791999;28;20724;-70
2021/04/23 16:00:00;;;;;;;9.53;5.90;;;;;;;18.98;25.13;95825.06;6817946;28;20287;-71
2021/04/23 16:03:20;;;;;;;11.33;6.80;;;;;;;18.86;25.47;95825.41;6819377;28;20238;-71
2021/04/23 16:06:41;;;;;;;8.87;6.00;;;;;;;18.84;25.66;95834.69;6800977;28;20231;-69